Time;durP1;ratioP1;P1;durP2;ratioP2;P2;SDS_P1;SDS_P2;PMS_P1;PMS_P2;Temp;Humidity;BMP_temperature;BMP_pressure;BME280_temperature;BME280_humidity;BME280_pressure;Samples;Min_cycle;Max_cycle;Signal;HPM_P1;HPM_P2
2022/05/17 00:00:52;;;;;;;24.70;12.80;;;17.80;99.90;;;;;;4884362;29;20046;-83
2022/05/17 00:03:18;;;;;;;28.05;13.10;;;15.40;99.90;;;;;;4868536;29;20409;-83
2022/05/17 00:05:46;;;;;;;22.75;13.00;;;15.30;99.90;;;;;;4901210;29;20104;-83
2022/05/17 00:08:13;;;;;;;28.95;13.00;;;15.40;99.90;;;;;;4883861;29;20053;-83
2022/05/17 00:10:41;;;;;;;26.52;12.88;;;15.20;99.90;;;;;;4884281;29;20048;-83
2022/05/17 00:13:07;;;;;;;23.58;11.68;;;;;;;;;;4901038;29;20044;-83
2022/05/17 00:15:34;;;;;;;27.98;12.70;;;15.20;99.90;;;;;;4868960;29;20056;-83
2022/05/17 00:18:00;;;;;;;24.08;12.45;;;15.20;99.90;;;;;;4884157;29;20543;-83
2022/05/17 00:20:26;;;;;;;24.17;12.60;;;15.10;99.90;;;;;;4900985;29;20048;-83
2022/05/17 00:22:53;;;;;;;29.92;13.10;;;17.70;99.90;;;;;;4900772;29;20064;-83
2022/05/17 00:25:21;;;;;;;25.13;12.90;;;18.20;99.90;;;;;;4883548;29;20056;-83
2022/05/17 00:27:47;;;;;;;22.83;12.55;;;15.30;99.90;;;;;;4867906;29;20084;-83
2022/05/17 00:30:13;;;;;;;22.83;12.70;;;14.80;99.90;;;;;;4868845;29;20091;-83
2022/05/17 00:32:39;;;;;;;24.15;12.57;;;;;;;;;;4883966;29;20078;-83
2022/05/17 00:35:06;;;;;;;29.23;13.60;;;15.60;99.90;;;;;;4868157;29;20063;-83
2022/05/17 00:37:32;;;;;;;29.70;13.93;;;14.90;99.90;;;;;;4867861;29;20480;-83
2022/05/17 00:39:57;;;;;;;24.58;13.15;;;16.70;99.90;;;;;;4883745;29;20111;-83
2022/05/17 00:42:23;;;;;;;26.05;13.45;;;15.80;99.90;;;;;;4883639;29;20456;-83
2022/05/17 00:44:49;;;;;;;24.50;13.23;;;14.80;99.90;;;;;;4883395;29;20131;-83
2022/05/17 00:47:18;;;;;;;24.88;12.98;;;13.90;99.90;;;;;;4868627;29;20056;-83
2022/05/17 00:49:50;;;;;;;30.42;13.75;;;14.70;99.90;;;;;;4883489;29;20056;-83
2022/05/17 00:52:27;;;;;;;27.08;12.18;;;14.70;99.90;;;;;;4883356;29;20049;-83
2022/05/17 00:54:58;;;;;;;25.20;12.80;;;14.70;99.90;;;;;;4883133;29;20056;-83
2022/05/17 00:57:41;;;;;;;33.95;13.00;;;15.70;99.90;;;;;;4867655;29;20056;-83
2022/05/17 01:00:12;;;;;;;27.80;12.80;;;14.60;99.90;;;;;;4998396;23;20011;-87
2022/05/17 01:02:41;;;;;;;27.63;12.63;;;15.10;99.90;;;;;;4922361;29;20420;-86
2022/05/17 01:05:07;;;;;;;25.08;12.20;;;14.50;99.90;;;;;;4905529;29;20090;-86
2022/05/17 01:07:43;;;;;;;27.67;12.57;;;14.00;99.90;;;;;;4934400;29;20048;-86
2022/05/17 01:10:11;;;;;;;33.47;12.70;;;14.30;99.90;;;;;;4930305;29;20066;-86
2022/05/17 01:12:38;;;;;;;27.67;12.38;;;15.40;99.90;;;;;;4953441;29;20510;-86
2022/05/17 01:15:06;;;;;;;22.92;11.95;;;14.60;99.90;;;;;;4920552;29;20496;-87
2022/05/17 01:17:35;;;;;;;25.73;11.75;;;14.40;99.90;;;;;;4936021;29;20136;-87
2022/05/17 01:20:04;;;;;;;23.80;12.38;;;14.20;99.90;;;;;;4901188;29;20046;-86
2022/05/17 01:22:30;;;;;;;20.30;10.93;;;14.40;99.90;;;;;;4917115;29;20040;-86
2022/05/17 01:24:55;;;;;;;32.65;11.52;;;14.20;99.90;;;;;;4917405;29;20452;-87
2022/05/17 01:27:40;;;;;;;23.90;11.27;;;14.00;99.90;;;;;;4934372;29;20075;-86
2022/05/17 01:30:07;;;;;;;24.10;11.32;;;15.30;99.90;;;;;;4901478;29;20070;-86
2022/05/17 01:32:33;;;;;;;23.70;11.75;;;14.20;99.90;;;;;;4916935;29;20052;-86
2022/05/17 01:34:59;;;;;;;30.55;11.80;;;13.50;99.90;;;;;;4930944;29;20048;-86
2022/05/17 01:37:25;;;;;;;32.38;11.88;;;14.10;99.90;;;;;;4886386;29;20109;-86
2022/05/17 01:39:50;;;;;;;28.63;12.05;;;14.10;99.90;;;;;;4888308;29;20051;-86
2022/05/17 01:42:16;;;;;;;27.85;12.25;;;14.20;99.90;;;;;;4898284;29;20122;-86
2022/05/17 01:44:44;;;;;;;28.58;12.38;;;14.00;99.90;;;;;;4915140;29;20478;-86
2022/05/17 01:47:11;;;;;;;25.08;11.70;;;14.00;99.90;;;;;;4898163;29;20161;-86
2022/05/17 01:49:37;;;;;;;28.80;11.95;;;14.20;99.90;;;;;;4914120;29;20059;-86
2022/05/17 01:52:03;;;;;;;28.88;11.77;;;14.10;99.90;;;;;;4897852;29;20131;-86
2022/05/17 01:54:28;;;;;;;28.65;12.07;;;13.90;99.90;;;;;;4881926;29;20452;-86
2022/05/17 01:56:54;;;;;;;29.95;11.82;;;14.30;99.90;;;;;;4898027;29;20052;-86
2022/05/17 01:59:20;;;;;;;27.10;11.65;;;14.10;99.90;;;;;;4897883;29;20051;-86
2022/05/17 02:01:45;;;;;;;28.65;12.10;;;14.10;99.90;;;;;;4897345;29;20143;-86
2022/05/17 02:04:12;;;;;;;25.60;11.63;;;14.00;99.90;;;;;;4896871;29;20048;-86
2022/05/17 02:06:38;;;;;;;30.23;12.60;;;13.60;99.90;;;;;;4908472;29;20051;-86
2022/05/17 02:09:04;;;;;;;27.35;11.23;;;15.90;99.90;;;;;;4930358;29;20409;-86
2022/05/17 02:11:29;;;;;;;32.70;11.65;;;15.80;99.90;;;;;;4914177;29;20067;-86
2022/05/17 02:13:55;;;;;;;28.30;11.75;;;13.80;99.90;;;;;;4881946;29;20823;-86
2022/05/17 02:16:21;;;;;;;21.88;10.77;;;13.60;99.90;;;;;;4897288;29;20071;-86
2022/05/17 02:18:47;;;;;;;24.90;12.10;;;13.80;99.90;;;;;;4881417;29;20139;-86
2022/05/17 02:21:13;;;;;;;31.23;12.15;;;13.40;99.90;;;;;;4881860;29;20103;-87
2022/05/17 02:23:38;;;;;;;26.30;11.48;;;13.90;99.90;;;;;;4881633;29;20048;-86
2022/05/17 02:26:04;;;;;;;27.73;11.48;;;13.90;99.90;;;;;;4897484;29;20104;-86
2022/05/17 02:28:30;;;;;;;30.60;11.55;;;13.60;99.90;;;;;;4896963;29;20490;-85
2022/05/17 02:30:55;;;;;;;32.00;12.15;;;12.80;99.90;;;;;;4897420;29;20052;-85
2022/05/17 02:33:21;;;;;;;22.25;11.38;;;14.80;99.90;;;;;;4880983;29;20048;-86
2022/05/17 02:35:46;;;;;;;24.85;12.00;;;13.10;99.90;;;;;;4897418;29;20135;-86
2022/05/17 02:38:12;;;;;;;23.85;11.20;;;13.60;99.90;;;;;;4913976;29;20035;-85
2022/05/17 02:40:38;;;;;;;26.77;11.60;;;11.30;99.90;;;;;;4913616;29;20107;-86
2022/05/17 02:43:04;;;;;;;25.75;12.35;;;13.70;99.90;;;;;;4896710;29;20525;-86
2022/05/17 02:45:30;;;;;;;29.02;11.50;;;13.40;99.90;;;;;;4881573;29;20071;-86
2022/05/17 02:47:56;;;;;;;34.33;12.65;;;13.60;99.90;;;;;;4896565;29;20136;-86
2022/05/17 02:50:22;;;;;;;27.00;11.25;;;13.50;99.90;;;;;;4913667;29;20127;-87
2022/05/17 02:52:48;;;;;;;26.48;11.80;;;13.60;99.90;;;;;;4914277;29;20481;-86
2022/05/17 02:55:14;;;;;;;28.77;12.00;;;13.60;99.90;;;;;;4913588;29;20044;-86
2022/05/17 02:57:40;;;;;;;24.48;10.95;;;13.90;99.90;;;;;;4881122;29;20051;-86
2022/05/17 03:00:11;;;;;;;29.17;11.90;;;13.60;99.90;;;;;;4913695;29;20048;-86
2022/05/17 03:02:37;;;;;;;26.85;11.57;;;13.20;99.90;;;;;;4896255;29;20143;-86
2022/05/17 03:05:02;;;;;;;23.42;11.52;;;13.40;99.90;;;;;;4897510;29;20515;-86
2022/05/17 03:07:28;;;;;;;27.65;10.63;;;13.30;99.90;;;;;;4880760;29;20057;-86
2022/05/17 03:09:54;;;;;;;23.77;11.57;;;13.60;99.90;;;;;;4896759;29;20058;-86
2022/05/17 03:12:19;;;;;;;28.80;12.13;;;13.40;99.90;;;;;;4913469;29;20474;-86
2022/05/17 03:14:45;;;;;;;28.10;11.98;;;13.20;99.90;;;;;;4896656;29;20059;-86
2022/05/17 03:17:16;;;;;;;28.65;11.77;;;13.50;99.90;;;;;;4901547;29;20517;-86
2022/05/17 03:19:42;;;;;;;26.17;11.55;;;13.20;99.90;;;;;;4899318;29;20433;-86
2022/05/17 03:22:08;;;;;;;30.88;11.52;;;13.30;99.90;;;;;;4915645;29;20496;-86
2022/05/17 03:24:34;;;;;;;27.75;12.10;;;13.30;99.90;;;;;;4915289;29;20103;-86
2022/05/17 03:27:00;;;;;;;30.15;12.20;;;13.20;99.90;;;;;;4915918;29;20043;-85
2022/05/17 03:29:26;;;;;;;25.63;11.32;;;13.10;99.90;;;;;;4899339;29;20082;-86
2022/05/17 03:31:52;;;;;;;27.25;11.98;;;13.60;99.90;;;;;;4915087;29;20040;-85
2022/05/17 03:34:18;;;;;;;31.33;11.77;;;13.20;99.90;;;;;;4899508;29;20177;-85
2022/05/17 03:36:44;;;;;;;27.15;11.85;;;13.20;99.90;;;;;;4915457;29;20044;-86
2022/05/17 03:39:10;;;;;;;30.00;12.00;;;13.10;99.90;;;;;;4899769;29;20078;-86
2022/05/17 03:41:36;;;;;;;30.70;12.30;;;12.60;99.90;;;;;;4899371;29;20493;-86
2022/05/17 03:44:02;;;;;;;30.20;12.10;;;13.40;99.90;;;;;;4899494;29;20785;-85
2022/05/17 03:46:28;;;;;;;28.83;11.80;;;13.10;99.90;;;;;;4898624;29;20040;-86
2022/05/17 03:48:53;;;;;;;29.40;11.70;;;13.70;99.90;;;;;;4915296;29;20128;-86
2022/05/17 03:51:20;;;;;;;28.85;12.00;;;13.00;99.90;;;;;;4915396;29;20099;-85
2022/05/17 03:53:47;;;;;;;32.80;12.15;;;13.90;99.90;;;;;;4899568;29;20539;-85
2022/05/17 03:56:13;;;;;;;27.20;11.95;;;12.90;99.90;;;;;;4915318;29;20055;-85
2022/05/17 03:58:39;;;;;;;29.70;11.90;;;13.20;99.90;;;;;;4883604;29;20492;-86
2022/05/17 04:01:06;;;;;;;26.05;11.40;;;13.20;99.90;;;;;;4914394;29;20179;-85
2022/05/17 04:03:32;;;;;;;33.25;11.93;;;13.60;99.90;;;;;;4914858;29;20075;-85
2022/05/17 04:05:58;;;;;;;28.83;11.55;;;13.70;99.90;;;;;;4915120;29;20050;-86
2022/05/17 04:08:23;;;;;;;27.42;11.70;;;13.30;99.90;;;;;;4914680;29;20055;-85
2022/05/17 04:10:49;;;;;;;27.38;11.55;;;13.30;99.90;;;;;;4899474;29;20052;-86
2022/05/17 04:13:15;;;;;;;27.52;11.77;;;15.20;99.90;;;;;;4932158;29;20135;-85
2022/05/17 04:15:41;;;;;;;24.60;11.15;;;13.00;99.90;;;;;;4914302;29;20100;-86
2022/05/17 04:18:07;;;;;;;24.58;10.98;;;13.20;99.90;;;;;;4914990;29;20079;-85
2022/05/17 04:20:33;;;;;;;24.05;10.82;;;;;;;;;;4914443;29;20094;-85
2022/05/17 04:22:59;;;;;;;32.25;11.23;;;13.90;99.90;;;;;;4916040;29;20498;-87
2022/05/17 04:25:27;;;;;;;25.02;11.02;;;13.20;99.90;;;;;;4923306;29;20103;-88
2022/05/17 04:27:54;;;;;;;28.15;11.05;;;13.80;99.90;;;;;;4919918;29;20039;-86
2022/05/17 04:30:20;;;;;;;27.33;11.02;;;13.60;99.90;;;;;;4918209;29;20040;-86
2022/05/17 04:32:47;;;;;;;27.05;10.77;;;14.30;99.90;;;;;;4935230;29;20374;-84
2022/05/17 04:35:14;;;;;;;22.08;10.23;;;14.10;99.90;;;;;;4902236;29;20103;-86
2022/05/17 04:37:40;;;;;;;22.63;9.27;;;14.20;99.90;;;;;;4902640;29;20054;-86
2022/05/17 04:40:08;;;;;;;21.52;8.70;;;16.10;99.90;;;;;;4917713;29;20052;-86
2022/05/17 04:42:37;;;;;;;22.13;8.18;;;15.50;99.90;;;;;;4901607;29;20497;-86
2022/05/17 04:45:05;;;;;;;17.13;7.57;;;16.40;99.90;;;;;;4935025;29;20051;-86
2022/05/17 04:47:31;;;;;;;17.95;7.03;;;16.90;99.90;;;;;;4917970;29;20079;-85
2022/05/17 04:49:56;;;;;;;15.57;6.70;;;18.30;99.90;;;;;;4934613;29;20094;-86
2022/05/17 04:52:23;;;;;;;15.90;6.72;;;18.40;99.90;;;;;;4917570;29;20044;-86
2022/05/17 04:54:50;;;;;;;17.10;7.15;;;20.70;99.90;;;;;;4917972;29;20040;-86
2022/05/17 04:57:16;;;;;;;16.25;6.75;;;19.70;99.90;;;;;;4917533;29;20047;-85
2022/05/17 04:59:41;;;;;;;15.13;6.05;;;21.30;99.90;;;;;;4901858;29;20605;-86
2022/05/17 05:02:07;;;;;;;17.95;6.32;;;19.90;99.90;;;;;;4917230;29;20556;-85
2022/05/17 05:04:34;;;;;;;15.20;6.50;;;20.00;99.90;;;;;;4914141;29;20500;-85
2022/05/17 05:07:00;;;;;;;14.88;6.07;;;20.10;99.90;;;;;;4911175;29;20043;-85
2022/05/17 05:09:26;;;;;;;15.63;6.57;;;20.20;99.90;;;;;;4923240;29;20054;-86
2022/05/17 05:11:53;;;;;;;16.85;6.13;;;19.40;99.90;;;;;;4927760;29;20055;-86
2022/05/17 05:14:19;;;;;;;14.52;5.40;;;19.60;99.90;;;;;;4912156;29;20055;-86
2022/05/17 05:16:44;;;;;;;15.43;5.82;;;19.80;99.90;;;;;;4925962;29;20051;-86
2022/05/17 05:19:10;;;;;;;14.65;5.55;;;22.10;99.90;;;;;;4922229;29;20118;-86
2022/05/17 05:21:35;;;;;;;13.43;5.53;;;21.60;99.90;;;;;;4938904;29;20067;-86
2022/05/17 05:24:04;;;;;;;13.68;5.50;;;24.90;99.90;;;;;;4917309;29;20068;-88
2022/05/17 05:26:31;;;;;;;18.02;5.90;;;22.80;99.90;;;;;;4902764;29;20485;-87
2022/05/17 05:28:57;;;;;;;15.65;5.72;;;23.10;99.90;;;;;;4917478;29;20044;-87
2022/05/17 05:31:22;;;;;;;12.27;5.25;;;23.00;99.90;;;;;;4916793;29;20051;-87
2022/05/17 05:33:48;;;;;;;17.67;5.72;;;23.00;99.90;;;;;;4933786;29;20047;-87
2022/05/17 05:36:13;;;;;;;12.07;5.57;;;22.80;99.90;;;;;;4934364;29;20051;-87
2022/05/17 05:38:39;;;;;;;15.02;6.10;;;22.70;99.90;;;;;;4915815;29;20048;-87
2022/05/17 05:41:08;;;;;;;15.75;6.07;;;22.70;99.90;;;;;;4901057;29;20042;-87
2022/05/17 05:43:34;;;;;;;16.48;6.15;;;22.60;99.90;;;;;;4934156;29;20117;-87
2022/05/17 05:45:59;;;;;;;15.35;5.78;;;23.10;99.90;;;;;;4901378;29;20048;-87
2022/05/17 05:48:25;;;;;;;12.85;5.65;;;22.70;99.90;;;;;;4900808;29;20493;-88
2022/05/17 05:50:52;;;;;;;13.25;5.63;;;22.60;99.90;;;;;;4901655;29;20247;-88
2022/05/17 05:53:19;;;;;;;16.23;5.70;;;24.60;99.90;;;;;;4901369;29;20508;-88
2022/05/17 05:55:45;;;;;;;15.45;5.63;;;23.50;99.90;;;;;;4916158;29;20047;-88
2022/05/17 05:58:17;;;;;;;14.80;5.60;;;26.30;99.90;;;;;;4900874;29;20138;-88
2022/05/17 06:00:43;;;;;;;11.65;5.60;;;27.30;99.90;;;;;;4933657;29;20060;-87
2022/05/17 06:03:09;;;;;;;12.90;5.10;;;25.50;99.50;;;;;;4916627;29;20489;-85
2022/05/17 06:05:36;;;;;;;13.02;5.38;;;26.10;97.40;;;;;;4900398;29;20051;-86
2022/05/17 06:08:03;;;;;;;11.90;5.05;;;26.30;95.10;;;;;;4901024;29;20052;-86
2022/05/17 06:10:29;;;;;;;11.32;5.05;;;25.50;99.80;;;;;;4900367;29;20047;-86
2022/05/17 06:12:54;;;;;;;15.38;5.18;;;25.80;95.40;;;;;;4916706;29;20457;-86
2022/05/17 06:15:20;;;;;;;15.50;5.55;;;24.90;97.60;;;;;;4900450;29;20041;-86
2022/05/17 06:17:46;;;;;;;13.52;5.60;;;26.30;99.90;;;;;;4900748;29;20043;-87
2022/05/17 06:20:14;;;;;;;12.05;5.25;;;26.80;99.90;;;;;;4916549;29;20032;-87
2022/05/17 06:22:40;;;;;;;15.77;5.28;;;22.40;99.90;;;;;;4935608;29;20552;-88
2022/05/17 06:25:07;;;;;;;16.50;5.38;;;23.30;99.90;;;;;;4902227;29;20051;-88
2022/05/17 06:27:32;;;;;;;13.93;5.35;;;23.30;99.90;;;;;;4933797;29;20044;-88
2022/05/17 06:29:58;;;;;;;12.63;5.25;;;23.40;99.90;;;;;;4917220;29;20131;-87
2022/05/17 06:32:23;;;;;;;12.93;5.65;;;23.60;99.90;;;;;;4900423;29;20059;-88
2022/05/17 06:34:49;;;;;;;17.55;5.78;;;25.00;99.90;;;;;;4884871;29;20735;-88
2022/05/17 06:37:15;;;;;;;15.75;5.07;;;24.60;99.90;;;;;;4900343;29;20046;-87
2022/05/17 06:39:42;;;;;;;20.63;5.78;;;25.00;99.90;;;;;;4899480;29;20074;-88
2022/05/17 06:42:07;;;;;;;13.63;4.75;;;25.20;96.60;;;;;;4915831;29;20055;-88
2022/05/17 06:44:33;;;;;;;17.13;5.55;;;26.70;97.40;;;;;;4899631;29;20043;-88
2022/05/17 06:46:59;;;;;;;15.07;5.10;;;26.70;90.20;;;;;;4900548;29;20039;-88
2022/05/17 06:49:27;;;;;;;11.27;4.82;;;27.20;93.80;;;;;;4914394;29;20102;-88
2022/05/17 06:51:53;;;;;;;15.70;4.93;;;28.90;87.70;;;;;;4931630;29;20071;-87
2022/05/17 06:54:19;;;;;;;19.75;5.35;;;26.40;85.30;;;;;;4914857;29;20054;-88
2022/05/17 06:56:45;;;;;;;11.07;4.70;;;27.10;93.40;;;;;;4932254;29;20080;-87
2022/05/17 06:59:11;;;;;;;14.82;5.00;;;27.60;92.20;;;;;;4899703;29;20138;-88
2022/05/17 07:01:36;;;;;;;11.57;4.70;;;27.20;76.70;;;;;;4915170;29;20496;-88
2022/05/17 07:04:03;;;;;;;13.05;4.53;;;27.70;73.30;;;;;;4932591;29;20043;-88
2022/05/17 07:06:28;;;;;;;13.77;5.03;;;27.90;71.30;;;;;;4915231;29;20094;-88
2022/05/17 07:08:54;;;;;;;15.05;4.60;;;29.60;70.00;;;;;;4916006;29;20047;-87
2022/05/17 07:14:24;;;;;;;12.48;4.60;;;28.10;67.10;;;;;;4895010;29;20056;-88
2022/05/17 07:16:50;;;;;;;14.32;4.90;;;28.00;77.30;;;;;;4911159;29;20774;-88
2022/05/17 07:19:15;;;;;;;11.95;4.85;;;28.00;69.10;;;;;;4895490;29;20056;-88
2022/05/17 07:21:41;;;;;;;10.77;4.72;;;28.10;77.30;;;;;;4895182;29;20052;-88
2022/05/17 07:24:06;;;;;;;11.98;4.72;;;28.10;69.50;;;;;;4895114;29;20064;-86
2022/05/17 07:26:32;;;;;;;14.00;5.10;;;28.10;70.10;;;;;;4910804;29;20058;-87
2022/05/17 07:28:58;;;;;;;13.63;4.70;;;28.60;72.30;;;;;;4895989;29;20135;-87
2022/05/17 07:31:24;;;;;;;15.50;5.28;;;27.10;81.30;;;;;;4896829;29;20124;-87
2022/05/17 07:33:49;;;;;;;14.77;4.93;;;29.50;80.00;;;;;;4882819;29;20080;-86
2022/05/17 07:36:15;;;;;;;18.35;5.45;;;29.10;83.30;;;;;;4916583;29;20076;-87
2022/05/17 07:38:40;;;;;;;13.30;4.90;;;26.40;83.70;;;;;;4880235;29;20517;-86
2022/05/17 07:41:07;;;;;;;13.30;5.10;;;26.80;86.80;;;;;;4912059;29;20140;-86
2022/05/17 07:43:34;;;;;;;12.18;5.00;;;26.00;90.20;;;;;;4895405;29;20103;-88
2022/05/17 07:45:59;;;;;;;15.63;5.50;;;26.00;91.40;;;;;;4915161;29;20058;-87
2022/05/17 07:48:25;;;;;;;10.48;4.80;;;29.00;92.80;;;;;;4915057;29;20133;-88
2022/05/17 07:50:51;;;;;;;14.75;5.03;;;28.60;93.60;;;;;;4899524;29;20258;-88
2022/05/17 07:53:20;;;;;;;10.65;4.50;;;25.90;93.60;;;;;;4899139;29;20131;-88
2022/05/17 07:55:47;;;;;;;14.77;4.78;;;26.00;94.20;;;;;;4915727;29;20047;-87
2022/05/17 07:58:13;;;;;;;14.27;5.22;;;26.20;94.10;;;;;;4899306;29;20067;-87
2022/05/17 08:00:41;;;;;;;13.63;4.95;;;26.40;93.50;;;;;;4899486;29;20194;-88
2022/05/17 08:03:08;;;;;;;17.58;4.80;;;26.40;93.10;;;;;;4936308;29;20078;-87
2022/05/17 08:05:35;;;;;;;15.90;4.90;;;;;;;;;;4918959;29;20044;-88
2022/05/17 08:08:02;;;;;;;13.05;4.63;;;;;;;;;;4902935;29;20063;-87
2022/05/17 08:10:28;;;;;;;13.40;5.10;;;26.40;91.10;;;;;;4918673;29;20501;-88
2022/05/17 08:12:54;;;;;;;14.32;4.40;;;;;;;;;;4903184;29;20098;-87
2022/05/17 08:15:24;;;;;;;16.27;5.07;;;26.30;91.60;;;;;;4903297;29;20103;-88
2022/05/17 08:17:50;;;;;;;14.32;4.70;;;27.80;93.60;;;;;;4935582;29;20031;-88
2022/05/17 08:20:18;;;;;;;12.20;4.50;;;;;;;;;;4902360;29;20408;-88
2022/05/17 08:22:45;;;;;;;11.95;4.60;;;26.50;91.30;;;;;;4902972;29;20134;-88
2022/05/17 08:28:03;;;;;;;13.18;4.80;;;26.30;91.10;;;;;;4935613;29;20052;-87
2022/05/17 08:30:29;;;;;;;12.73;4.70;;;26.10;92.00;;;;;;4917737;29;20062;-87
2022/05/17 08:33:16;;;;;;;10.80;4.22;;;26.10;93.40;;;;;;4918244;29;20498;-87
2022/05/17 08:35:42;;;;;;;12.52;4.60;;;27.00;93.30;;;;;;4917939;29;20054;-89
2022/05/17 08:38:09;;;;;;;10.55;4.43;;;26.10;93.30;;;;;;4917395;29;20481;-87
2022/05/17 08:40:45;;;;;;;13.85;4.88;;;26.10;92.50;;;;;;4901899;29;20485;-87
2022/05/17 08:43:23;;;;;;;14.05;4.63;;;27.20;89.80;;;;;;4918251;29;20055;-87
2022/05/17 08:46:07;;;;;;;11.60;4.10;;;26.20;90.70;;;;;;4935406;29;20047;-88
2022/05/17 08:48:47;;;;;;;12.70;4.28;;;27.10;88.90;;;;;;4934448;29;20051;-87
2022/05/17 08:51:16;;;;;;;12.90;4.03;;;27.90;91.00;;;;;;4917680;29;20087;-86
2022/05/17 08:53:43;;;;;;;25.40;11.25;;;29.20;90.50;;;;;;4934904;29;20040;-87
2022/05/17 08:56:10;;;;;;;13.98;4.28;;;26.30;89.60;;;;;;4917950;29;20047;-88
2022/05/17 08:58:40;;;;;;;10.25;3.80;;;26.30;90.10;;;;;;4902231;29;20467;-87
2022/05/17 09:01:18;;;;;;;13.50;4.22;;;26.20;90.10;;;;;;4936694;29;20464;-87
2022/05/17 09:04:09;;;;;;;12.70;3.92;;;26.90;85.60;;;;;;4901019;29;20115;-87
2022/05/17 09:07:04;;;;;;;11.35;3.88;;;26.00;82.80;;;;;;4919678;29;20070;-88
2022/05/17 09:10:02;;;;;;;12.45;4.03;;;25.90;86.90;;;;;;4918271;29;20123;-88
2022/05/17 09:12:45;;;;;;;9.30;3.50;;;26.00;87.10;;;;;;4823518;29;20160;-87
2022/05/17 09:15:15;;;;;;;12.27;4.30;;;25.60;87.10;;;;;;4823716;29;20058;-87
2022/05/17 09:17:40;;;;;;;12.80;4.00;;;25.40;90.70;;;;;;4823214;29;20050;-88
2022/05/17 09:20:08;;;;;;;13.63;3.75;;;25.30;90.70;;;;;;4807882;29;20632;-88
2022/05/17 09:22:34;;;;;;;13.75;3.70;;;25.30;90.10;;;;;;4823711;29;20054;-88
2022/05/17 09:25:02;;;;;;;12.95;3.50;;;26.00;90.00;;;;;;4839037;29;20521;-88
2022/05/17 09:27:37;;;;;;;15.15;4.00;;;25.90;90.30;;;;;;4823525;29;20050;-87
2022/05/17 09:30:23;;;;;;;11.43;3.63;;;25.50;87.90;;;;;;4807951;29;20057;-88
2022/05/17 09:32:52;;;;;;;;;;;25.50;86.90;;;;;;4822178;29;20041;-87
2022/05/17 09:35:21;;;;;;;13.38;3.75;;;25.60;85.40;;;;;;4807989;29;19920;-88
2022/05/17 09:37:52;;;;;;;10.95;3.88;;;25.50;84.80;;;;;;4823129;29;20053;-88
2022/05/17 09:40:24;;;;;;;11.55;3.95;;;28.00;90.70;;;;;;4823240;29;20050;-87
2022/05/17 09:42:59;;;;;;;12.93;3.72;;;25.20;88.20;;;;;;4823329;29;20114;-88
2022/05/17 09:46:05;;;;;;;9.63;3.58;;;27.30;88.70;;;;;;4838231;29;20144;-88
2022/05/17 09:54:53;;;;;;;12.77;4.22;;;25.40;89.50;;;;;;4903945;29;20051;-87
2022/05/17 09:57:25;;;;;;;9.25;3.80;;;24.40;89.50;;;;;;4807968;29;20656;-88
2022/05/17 10:00:01;;;;;;;12.57;3.58;;;26.20;86.90;;;;;;4902431;29;20099;-88
2022/05/17 10:02:29;;;;;;;13.43;3.70;;;25.70;83.30;;;;;;4900417;29;20062;-88
2022/05/17 10:04:56;;;;;;;9.05;3.10;;;27.20;84.40;;;;;;4916393;29;20048;-88
2022/05/17 10:07:28;;;;;;;11.02;3.90;;;25.40;82.30;;;;;;4916813;29;20043;-88
2022/05/17 10:09:53;;;;;;;11.65;3.50;;;25.30;81.60;;;;;;4916717;29;20051;-88
2022/05/17 10:12:33;;;;;;;9.82;3.53;;;25.50;81.70;;;;;;4900924;29;20042;-88
2022/05/17 10:15:08;;;;;;;11.40;3.80;;;25.60;78.90;;;;;;4916755;29;20048;-87
2022/05/17 10:17:35;;;;;;;13.00;3.67;;;25.60;78.00;;;;;;4900467;29;20044;-88
2022/05/17 10:20:15;;;;;;;10.95;3.22;;;27.60;79.10;;;;;;4916433;29;20531;-88
2022/05/17 10:22:50;;;;;;;10.52;3.00;;;25.50;78.00;;;;;;4916265;29;20079;-87
2022/05/17 10:25:41;;;;;;;;;;;25.70;76.80;;;;;;4916206;29;20055;-88
2022/05/17 10:28:15;;;;;;;11.73;3.40;;;25.70;72.50;;;;;;4825298;29;19971;-88
2022/05/17 10:30:50;;;;;;;15.70;3.00;;;25.20;75.70;;;;;;4825200;29;20255;-87
2022/05/17 10:33:35;;;;;;;7.97;2.47;;;25.80;73.80;;;;;;4855973;29;20065;-88
2022/05/17 10:36:10;;;;;;;10.00;2.97;;;25.70;71.10;;;;;;4840820;29;20072;-88
2022/05/17 10:38:39;;;;;;;;;;;25.70;74.90;;;;;;4825158;29;20542;-87
2022/05/17 10:41:09;;;;;;;9.90;2.60;;;27.70;75.70;;;;;;4825547;29;19931;-87
2022/05/17 10:43:38;;;;;;;11.38;2.70;;;25.00;75.10;;;;;;4839444;29;20049;-87
2022/05/17 10:46:04;;;;;;;10.52;2.97;;;28.10;76.60;;;;;;4840138;29;20050;-88
2022/05/17 10:48:54;;;;;;;13.02;2.95;;;25.40;75.50;;;;;;4839996;29;20501;-88
2022/05/17 10:51:54;;;;;;;11.15;3.20;;;25.40;74.30;;;;;;4859522;29;20070;-87
2022/05/17 10:54:38;;;;;;;11.77;3.00;;;25.40;73.90;;;;;;4840551;29;20046;-88
2022/05/17 10:57:31;;;;;;;12.50;3.08;;;25.40;74.50;;;;;;4840863;29;20081;-88
2022/05/17 11:00:22;;;;;;;10.82;3.20;;;25.40;70.90;;;;;;4839941;29;20055;-87
2022/05/17 11:03:07;;;;;;;13.55;2.92;;;25.30;73.90;;;;;;4824700;29;20139;-88
2022/05/17 11:06:18;;;;;;;14.07;3.05;;;25.40;75.10;;;;;;4891686;29;20052;-87
2022/05/17 11:08:52;;;;;;;12.30;3.10;;;25.40;76.80;;;;;;4915025;29;20047;-88
2022/05/17 11:11:37;;;;;;;12.35;3.45;;;25.30;75.60;;;;;;4915709;29;20067;-88
2022/05/17 11:14:09;;;;;;;21.33;4.13;;;27.40;81.80;;;;;;4915141;29;20054;-87
2022/05/17 11:16:43;;;;;;;13.75;4.18;;;27.90;84.10;;;;;;4915857;29;20039;-88
2022/05/17 11:19:14;;;;;;;14.68;4.40;;;25.20;84.10;;;;;;4899572;29;20048;-88
2022/05/17 11:21:52;;;;;;;13.95;4.43;;;26.00;86.50;;;;;;4932386;29;20036;-87
2022/05/17 11:25:10;;;;;;;14.57;4.40;;;25.20;86.00;;;;;;4915383;29;20044;-88
2022/05/17 11:28:12;;;;;;;15.25;4.35;;;25.10;85.80;;;;;;4915284;29;20058;-88
2022/05/17 11:30:44;;;;;;;13.85;5.35;;;25.20;90.00;;;;;;4914628;29;20063;-88
2022/05/17 11:33:21;;;;;;;14.35;5.45;;;25.20;89.60;;;;;;4932449;29;20055;-88
2022/05/17 11:35:49;;;;;;;16.42;5.57;;;25.10;90.30;;;;;;4915612;29;20489;-88
2022/05/17 11:38:39;;;;;;;14.25;5.00;;;24.80;91.10;;;;;;4935658;29;20046;-88
2022/05/17 11:41:21;;;;;;;15.45;5.30;;;24.40;92.00;;;;;;4902354;29;20050;-87
2022/05/17 11:43:49;;;;;;;14.70;5.60;;;24.60;92.80;;;;;;4902327;29;20052;-88
2022/05/17 11:46:34;;;;;;;15.35;5.90;;;24.50;93.80;;;;;;4903335;29;20219;-87
2022/05/17 11:49:12;;;;;;;;;;;24.50;94.80;;;;;;4904032;29;20378;-87
2022/05/17 11:52:08;;;;;;;15.32;5.05;;;24.40;95.10;;;;;;4918588;29;19923;-88
2022/05/17 11:54:44;;;;;;;13.55;4.70;;;26.10;95.50;;;;;;4885624;29;20065;-88
2022/05/17 11:57:29;;;;;;;12.45;4.78;;;24.20;94.40;;;;;;4910885;29;20051;-88
2022/05/17 12:00:18;;;;;;;;;;;24.20;93.80;;;;;;4938196;29;20092;-87
2022/05/17 12:02:57;;;;;;;13.23;4.53;;;24.20;95.00;;;;;;4893504;29;20367;-87
2022/05/17 12:05:37;;;;;;;12.63;4.90;;;24.20;94.90;;;;;;4903302;29;20090;-87
2022/05/17 12:08:35;;;;;;;15.98;4.72;;;24.20;94.90;;;;;;4918763;29;20445;-87
2022/05/17 12:11:29;;;;;;;10.93;4.40;;;24.30;93.50;;;;;;4902027;29;20092;-87
2022/05/17 12:14:15;;;;;;;15.48;4.72;;;24.70;93.80;;;;;;4918387;29;20177;-87
2022/05/17 12:16:50;;;;;;;20.75;5.40;;;24.40;92.80;;;;;;4918487;29;20075;-87
2022/05/17 12:19:29;;;;;;;14.52;5.25;;;24.50;93.20;;;;;;4903006;29;20047;-87
2022/05/17 12:22:07;;;;;;;17.80;5.70;;;24.50;94.30;;;;;;4902762;29;20052;-87
2022/05/17 12:24:49;;;;;;;13.30;4.90;;;24.50;93.40;;;;;;4902718;29;20493;-87
2022/05/17 12:27:21;;;;;;;15.20;5.03;;;24.60;94.00;;;;;;4920996;29;20048;-88
2022/05/17 12:32:43;;;;;;;11.95;5.40;;;24.60;96.00;;;;;;4954745;29;20051;-88
2022/05/17 12:35:09;;;;;;;14.02;5.82;;;24.60;95.20;;;;;;4937622;29;20178;-87
2022/05/17 12:37:41;;;;;;;15.13;5.10;;;24.60;95.10;;;;;;4954343;29;20464;-87
2022/05/17 12:43:07;;;;;;;13.98;5.13;;;24.60;96.30;;;;;;4936741;29;20051;-87
2022/05/17 12:45:38;;;;;;;14.05;4.57;;;24.60;96.40;;;;;;4923284;29;20118;-88
2022/05/17 12:48:31;;;;;;;17.80;4.13;;;24.60;96.20;;;;;;4921126;29;20105;-88
2022/05/17 12:51:05;;;;;;;11.02;4.47;;;24.70;95.30;;;;;;4920506;29;20106;-88
2022/05/17 12:53:39;;;;;;;14.25;5.00;;;24.70;95.90;;;;;;4920903;29;20130;-87
2022/05/17 12:56:27;;;;;;;16.15;5.75;;;25.50;96.40;;;;;;4954097;29;20079;-88
2022/05/17 12:58:59;;;;;;;14.25;4.72;;;24.90;96.10;;;;;;4935723;29;20488;-88
2022/05/17 13:01:38;;;;;;;13.00;4.78;;;24.80;96.00;;;;;;4933993;29;20508;-88
2022/05/17 13:04:24;;;;;;;14.75;5.15;;;24.70;96.30;;;;;;4925609;29;20083;-88
2022/05/17 13:07:02;;;;;;;14.40;4.15;;;24.50;95.10;;;;;;4929391;29;20050;-89
2022/05/17 13:09:28;;;;;;;12.75;4.85;;;;;;;;;;4947368;29;20043;-87
2022/05/17 13:12:09;;;;;;;12.95;5.13;;;24.50;95.80;;;;;;4944319;29;20043;-88